createdAt,value
2023-04-19T00:02:16.951Z,2.40
2023-04-19T00:07:21.446Z,2.20
2023-04-19T00:12:23.924Z,1.83
2023-04-19T00:17:27.558Z,2.28
2023-04-19T00:22:31.103Z,3.45
2023-04-19T00:27:33.527Z,3.22
2023-04-19T00:32:36.511Z,2.85
2023-04-19T00:37:38.881Z,1.80
2023-04-19T00:42:42.358Z,1.80
2023-04-19T00:47:47.650Z,1.33
2023-04-19T00:52:52.279Z,1.88
2023-04-19T00:57:54.892Z,1.73
2023-04-19T01:02:57.468Z,1.55
2023-04-19T01:08:02.087Z,1.25
2023-04-19T01:13:04.472Z,1.75
2023-04-19T01:18:07.588Z,3.45
2023-04-19T01:23:12.263Z,3.58
2023-04-19T01:28:14.704Z,2.83
2023-04-19T01:33:18.287Z,3.35
2023-04-19T01:38:21.145Z,3.78
2023-04-19T01:43:24.035Z,2.63
2023-04-19T01:48:27.550Z,1.95
2023-04-19T01:53:30.531Z,1.92
2023-04-19T01:58:33.435Z,1.65
2023-04-19T02:03:36.225Z,1.55
2023-04-19T02:08:40.105Z,1.63
2023-04-19T02:13:43.425Z,1.65
2023-04-19T02:18:47.048Z,1.23
2023-04-19T02:23:49.506Z,1.70
2023-04-19T02:28:53.128Z,1.50
2023-04-19T02:33:56.046Z,1.75
2023-04-19T02:39:00.114Z,1.45
2023-04-19T02:44:02.911Z,1.83
2023-04-19T02:49:07.280Z,1.70
2023-04-19T02:54:10.059Z,2.28
2023-04-19T02:59:13.900Z,2.75
2023-04-19T03:04:17.506Z,1.55
2023-04-19T03:09:20.773Z,1.55
2023-04-19T03:14:24.295Z,2.08
2023-04-19T03:19:29.212Z,2.38
2023-04-19T03:24:32.012Z,1.58
2023-04-19T03:29:48.796Z,1.73
2023-04-19T03:34:51.868Z,2.00
2023-04-19T03:39:54.330Z,3.40
2023-04-19T03:45:06.209Z,2.22
2023-04-19T03:50:13.784Z,1.90
2023-04-19T03:55:19.839Z,3.55
2023-04-19T04:00:23.146Z,1.70
2023-04-19T04:05:31.597Z,2.97
2023-04-19T04:10:36.038Z,2.28
2023-04-19T04:15:39.724Z,2.63
2023-04-19T04:20:46.047Z,2.00
2023-04-19T04:25:58.265Z,2.00
2023-04-19T04:31:03.661Z,2.70
2023-04-19T04:36:12.762Z,2.08
2023-04-19T04:41:17.190Z,1.85
2023-04-19T04:46:20.301Z,2.90
2023-04-19T04:51:22.918Z,2.60
2023-04-19T04:56:29.536Z,3.20
2023-04-19T05:01:32.728Z,2.50
2023-04-19T05:06:37.904Z,3.22
2023-04-19T05:11:41.572Z,3.65
2023-04-19T05:16:44.983Z,3.47
2023-04-19T05:21:48.728Z,3.08
2023-04-19T05:26:53.258Z,2.75
2023-04-19T05:31:58.329Z,2.10
2023-04-19T05:37:25.976Z,3.35
2023-04-19T05:42:32.955Z,2.60
2023-04-19T05:47:37.984Z,4.05
2023-04-19T05:52:58.980Z,2.10
2023-04-19T05:58:01.531Z,3.00
2023-04-19T06:03:05.845Z,3.63
2023-04-19T06:08:16.696Z,4.32
2023-04-19T06:13:20.191Z,4.30
2023-04-19T06:18:22.908Z,5.00
2023-04-19T06:23:27.181Z,3.72
2023-04-19T06:28:30.891Z,2.22
2023-04-19T06:33:33.275Z,3.95
2023-04-19T06:38:36.557Z,5.13
2023-04-19T06:43:42.944Z,2.92
2023-04-19T06:48:45.358Z,3.95
2023-04-19T06:53:47.797Z,2.47
2023-04-19T06:58:50.212Z,4.40
2023-04-19T07:03:53.948Z,3.42
2023-04-19T07:08:58.320Z,2.78
2023-04-19T07:14:01.361Z,2.55
2023-04-19T07:19:03.953Z,3.42
2023-04-19T07:24:09.063Z,3.35
2023-04-19T07:34:17.146Z,7.05
2023-04-19T07:39:20.282Z,4.18
2023-04-19T07:44:22.648Z,8.48
2023-04-19T07:49:26.132Z,6.55
2023-04-19T07:54:30.626Z,9.15
2023-04-19T07:59:33.713Z,2.78
2023-04-19T08:04:37.557Z,3.33
2023-04-19T08:09:40.731Z,3.72
2023-04-19T08:14:56.045Z,3.97
2023-04-19T08:20:03.948Z,5.22
2023-04-19T08:25:08.229Z,5.07
2023-04-19T08:30:11.547Z,3.50
2023-04-19T08:35:15.322Z,4.18
2023-04-19T08:40:18.744Z,5.72
2023-04-19T08:45:31.144Z,4.95
2023-04-19T08:50:48.433Z,8.13
2023-04-19T09:01:06.287Z,3.75
2023-04-19T09:06:09.029Z,5.60
2023-04-19T09:11:11.683Z,4.78
2023-04-19T09:16:37.779Z,4.82
2023-04-19T09:21:40.683Z,4.13
2023-04-19T09:26:55.941Z,4.75
2023-04-19T09:32:00.508Z,6.25
2023-04-19T09:37:24.879Z,5.45
2023-04-19T09:48:08.101Z,5.40
2023-04-19T09:53:11.216Z,4.03
2023-04-19T09:58:14.847Z,4.38
2023-04-19T10:03:22.374Z,3.95
2023-04-19T10:08:29.044Z,6.10
2023-04-19T10:13:33.219Z,4.25
2023-04-19T10:18:36.638Z,4.47
2023-04-19T10:23:40.057Z,3.83
2023-04-19T10:28:42.866Z,5.63
2023-04-19T10:33:45.311Z,3.75
2023-04-19T10:38:53.118Z,3.80
2023-04-19T10:43:55.427Z,3.90
2023-04-19T10:49:00.036Z,4.03
2023-04-19T10:54:07.574Z,3.13
2023-04-19T10:59:22.170Z,3.72
2023-04-19T11:04:30.899Z,2.90
2023-04-19T11:09:35.764Z,4.70
2023-04-19T11:14:54.191Z,4.03
2023-04-19T11:20:07.785Z,3.47
2023-04-19T11:25:31.805Z,3.10
2023-04-19T11:30:35.072Z,2.17
2023-04-19T11:35:38.001Z,3.47
2023-04-19T11:40:41.384Z,2.95
2023-04-19T11:45:44.182Z,3.97
2023-04-19T11:50:49.740Z,2.97
2023-04-19T11:55:59.404Z,3.03
2023-04-19T12:01:29.721Z,2.72
2023-04-19T12:06:32.759Z,2.55
2023-04-19T12:11:47.374Z,2.60
2023-04-19T12:17:11.978Z,3.38
2023-04-19T12:22:15.891Z,2.95
2023-04-19T12:27:18.526Z,2.95
2023-04-19T12:32:21.116Z,2.92
2023-04-19T12:37:23.850Z,3.00
2023-04-19T12:42:27.660Z,2.75
2023-04-19T12:47:31.844Z,3.50
2023-04-19T12:52:35.267Z,3.03
2023-04-19T12:57:38.534Z,2.35
2023-04-19T13:02:42.114Z,2.35
2023-04-19T13:07:44.925Z,3.10
2023-04-19T13:12:47.267Z,2.70
2023-04-19T13:17:50.997Z,2.92
2023-04-19T13:22:53.891Z,2.90
2023-04-19T13:27:57.752Z,2.55
2023-04-19T13:33:02.068Z,2.85
2023-04-19T13:43:10.060Z,2.75
2023-04-19T13:48:15.486Z,2.25
2023-04-19T13:53:18.118Z,3.28
2023-04-19T13:58:20.565Z,3.13
2023-04-19T14:03:24.771Z,3.13
2023-04-19T14:08:27.751Z,2.67
2023-04-19T14:13:31.270Z,3.00
2023-04-19T14:18:34.475Z,3.50
2023-04-19T14:23:37.356Z,3.22
2023-04-19T14:28:40.202Z,2.58
2023-04-19T14:33:44.043Z,2.75
2023-04-19T14:38:46.463Z,2.67
2023-04-19T14:43:48.944Z,2.55
2023-04-19T14:48:51.849Z,2.80
2023-04-19T14:53:54.233Z,2.83
2023-04-19T14:58:57.655Z,2.95
2023-04-19T15:04:01.344Z,3.17
2023-04-19T15:09:05.556Z,2.35
2023-04-19T15:14:11.495Z,3.10
2023-04-19T15:19:15.074Z,2.70
2023-04-19T15:24:17.819Z,2.80
2023-04-19T15:29:21.029Z,3.92
2023-04-19T15:34:23.429Z,3.30
2023-04-19T15:39:26.041Z,3.47
2023-04-19T15:44:28.573Z,2.65
2023-04-19T15:49:31.506Z,3.15
2023-04-19T15:54:33.868Z,2.70
2023-04-19T15:59:36.300Z,3.60
2023-04-19T16:04:38.920Z,2.83
2023-04-19T16:09:41.435Z,1.63
2023-04-19T16:14:43.722Z,2.28
2023-04-19T16:19:46.188Z,2.35
2023-04-19T16:24:49.645Z,2.95
2023-04-19T16:29:51.977Z,3.40
2023-04-19T16:34:54.299Z,3.72
2023-04-19T16:40:08.668Z,2.90
2023-04-19T16:45:11.445Z,2.40
2023-04-19T16:50:14.662Z,2.58
2023-04-19T16:55:17.212Z,2.10
2023-04-19T17:00:22.128Z,1.88
2023-04-19T17:05:25.596Z,2.13
2023-04-19T17:10:28.660Z,2.28
2023-04-19T17:15:32.117Z,2.22
2023-04-19T17:20:34.978Z,3.55
2023-04-19T17:25:37.407Z,2.15
2023-04-19T17:30:40.385Z,1.70
2023-04-19T17:35:43.133Z,1.90
2023-04-19T17:40:45.582Z,2.30
2023-04-19T17:45:47.909Z,2.17
2023-04-19T17:50:50.122Z,2.20
2023-04-19T17:55:52.529Z,2.38
2023-04-19T18:00:54.872Z,2.30
2023-04-19T18:05:57.698Z,2.35
2023-04-19T18:11:00.134Z,1.92
2023-04-19T18:16:03.770Z,1.65
2023-04-19T18:21:07.001Z,2.30
2023-04-19T18:26:09.548Z,2.25
2023-04-19T18:31:12.415Z,2.40
2023-04-19T18:36:14.778Z,1.88
2023-04-19T18:41:17.823Z,1.67
2023-04-19T18:46:21.828Z,2.58
2023-04-19T18:51:24.680Z,1.40
2023-04-19T18:57:03.840Z,1.73
2023-04-19T19:01:51.027Z,1.75
2023-04-19T19:06:53.887Z,2.03
2023-04-19T19:11:57.021Z,1.67
2023-04-19T19:16:59.781Z,1.55
2023-04-19T19:22:03.291Z,1.30
2023-04-19T19:27:06.011Z,1.23
2023-04-19T19:32:09.952Z,1.83
2023-04-19T19:37:12.748Z,2.30
2023-04-19T19:42:19.022Z,2.00
2023-04-19T19:47:22.255Z,2.00
2023-04-19T19:52:27.403Z,2.25
2023-04-19T19:58:16.403Z,2.45
2023-04-19T20:02:56.843Z,1.75
2023-04-19T20:08:08.494Z,1.27
2023-04-19T20:13:13.476Z,1.60
2023-04-19T20:18:17.763Z,1.10
2023-04-19T20:23:21.945Z,1.55
2023-04-19T20:28:26.249Z,1.48
2023-04-19T20:33:28.739Z,1.77
2023-04-19T20:38:32.308Z,1.65
2023-04-19T20:43:34.812Z,2.97
2023-04-19T20:48:38.181Z,2.10
2023-04-19T20:53:40.753Z,1.98
2023-04-19T20:58:43.593Z,2.10
2023-04-19T21:03:46.784Z,1.65
2023-04-19T21:08:49.922Z,1.67
2023-04-19T21:13:52.807Z,1.45
2023-04-19T21:18:56.003Z,2.40
2023-04-19T21:23:58.808Z,2.47
2023-04-19T21:29:01.718Z,2.65
2023-04-19T21:34:04.691Z,3.47
2023-04-19T21:39:07.194Z,3.25
2023-04-19T21:44:10.627Z,2.75
2023-04-19T21:49:13.635Z,2.70
2023-04-19T21:54:23.380Z,2.95
2023-04-19T21:59:35.970Z,3.10
2023-04-19T22:04:39.703Z,3.28
2023-04-19T22:09:42.880Z,2.97
2023-04-19T22:14:45.134Z,3.10
2023-04-19T22:19:48.786Z,2.88
2023-04-19T22:24:56.734Z,3.42
2023-04-19T22:30:00.486Z,2.50
2023-04-19T22:35:03.150Z,3.25
2023-04-19T22:40:07.029Z,3.60
2023-04-19T22:45:10.562Z,3.08
2023-04-19T22:50:13.168Z,3.38
2023-04-19T22:55:15.616Z,2.80
2023-04-19T23:00:18.380Z,2.67
2023-04-19T23:05:20.712Z,2.50
2023-04-19T23:10:24.626Z,1.75
2023-04-19T23:15:29.593Z,2.47
2023-04-19T23:20:32.400Z,3.83
2023-04-19T23:25:34.949Z,6.45
2023-04-19T23:30:37.340Z,6.97
2023-04-19T23:35:39.840Z,7.35
2023-04-19T23:40:42.296Z,8.35
2023-04-19T23:45:45.128Z,4.43
2023-04-19T23:50:47.667Z,3.28
2023-04-19T23:55:50.173Z,3.20
